sensor_id;sensor_type;location;lat;lon;timestamp;P1;durP1;ratioP1;P2;durP2;ratioP2
40076;SDS011;25777;47.824;18.982;2023-11-21T00:00:19;11.17;;;3.80;;
40076;SDS011;25777;47.824;18.982;2023-11-21T00:02:45;8.07;;;3.57;;
40076;SDS011;25777;47.824;18.982;2023-11-21T00:05:12;8.23;;;3.20;;
40076;SDS011;25777;47.824;18.982;2023-11-21T00:07:41;10.43;;;3.40;;
40076;SDS011;25777;47.824;18.982;2023-11-21T00:10:08;11.73;;;3.80;;
40076;SDS011;25777;47.824;18.982;2023-11-21T00:12:36;10.23;;;3.40;;
40076;SDS011;25777;47.824;18.982;2023-11-21T00:15:02;12.97;;;3.17;;
40076;SDS011;25777;47.824;18.982;2023-11-21T00:17:30;9.23;;;3.33;;
40076;SDS011;25777;47.824;18.982;2023-11-21T00:19:56;7.40;;;2.97;;
40076;SDS011;25777;47.824;18.982;2023-11-21T00:22:22;12.83;;;3.70;;
40076;SDS011;25777;47.824;18.982;2023-11-21T00:24:47;13.70;;;4.60;;
40076;SDS011;25777;47.824;18.982;2023-11-21T00:27:13;23.50;;;8.70;;
40076;SDS011;25777;47.824;18.982;2023-11-21T00:29:39;18.63;;;8.03;;
40076;SDS011;25777;47.824;18.982;2023-11-21T00:32:06;27.37;;;10.00;;
40076;SDS011;25777;47.824;18.982;2023-11-21T00:34:32;21.43;;;8.57;;
40076;SDS011;25777;47.824;18.982;2023-11-21T00:36:58;15.90;;;7.03;;
40076;SDS011;25777;47.824;18.982;2023-11-21T00:39:24;19.40;;;7.10;;
40076;SDS011;25777;47.824;18.982;2023-11-21T00:41:51;14.80;;;5.57;;
40076;SDS011;25777;47.824;18.982;2023-11-21T00:44:17;11.63;;;4.73;;
40076;SDS011;25777;47.824;18.982;2023-11-21T00:46:43;9.37;;;4.23;;
40076;SDS011;25777;47.824;18.982;2023-11-21T00:49:09;10.70;;;4.23;;
40076;SDS011;25777;47.824;18.982;2023-11-21T00:51:35;14.57;;;3.90;;
40076;SDS011;25777;47.824;18.982;2023-11-21T00:54:01;8.97;;;3.77;;
40076;SDS011;25777;47.824;18.982;2023-11-21T00:56:27;9.20;;;3.83;;
40076;SDS011;25777;47.824;18.982;2023-11-21T00:58:53;16.77;;;3.63;;
40076;SDS011;25777;47.824;18.982;2023-11-21T01:01:20;15.37;;;4.90;;
40076;SDS011;25777;47.824;18.982;2023-11-21T01:03:48;15.00;;;4.90;;
40076;SDS011;25777;47.824;18.982;2023-11-21T01:06:17;17.00;;;6.10;;
40076;SDS011;25777;47.824;18.982;2023-11-21T01:08:43;13.70;;;6.27;;
40076;SDS011;25777;47.824;18.982;2023-11-21T01:11:09;16.20;;;6.73;;
40076;SDS011;25777;47.824;18.982;2023-11-21T01:13:39;13.70;;;6.80;;
40076;SDS011;25777;47.824;18.982;2023-11-21T01:16:06;15.47;;;6.80;;
40076;SDS011;25777;47.824;18.982;2023-11-21T01:18:33;23.20;;;9.67;;
40076;SDS011;25777;47.824;18.982;2023-11-21T01:21:00;27.43;;;11.50;;
40076;SDS011;25777;47.824;18.982;2023-11-21T01:23:26;20.93;;;11.47;;
40076;SDS011;25777;47.824;18.982;2023-11-21T01:25:52;25.03;;;12.27;;
40076;SDS011;25777;47.824;18.982;2023-11-21T01:28:20;25.93;;;10.53;;
40076;SDS011;25777;47.824;18.982;2023-11-21T01:30:45;19.43;;;8.10;;
40076;SDS011;25777;47.824;18.982;2023-11-21T01:33:11;18.80;;;8.17;;
40076;SDS011;25777;47.824;18.982;2023-11-21T01:35:38;17.40;;;7.57;;
40076;SDS011;25777;47.824;18.982;2023-11-21T01:38:04;18.97;;;6.77;;
40076;SDS011;25777;47.824;18.982;2023-11-21T01:40:30;16.20;;;5.63;;
40076;SDS011;25777;47.824;18.982;2023-11-21T01:42:56;13.30;;;4.83;;
40076;SDS011;25777;47.824;18.982;2023-11-21T01:45:22;10.73;;;4.43;;
40076;SDS011;25777;47.824;18.982;2023-11-21T01:47:50;12.87;;;4.37;;
40076;SDS011;25777;47.824;18.982;2023-11-21T01:50:16;12.07;;;4.80;;
40076;SDS011;25777;47.824;18.982;2023-11-21T01:52:43;9.23;;;3.83;;
40076;SDS011;25777;47.824;18.982;2023-11-21T01:55:11;11.73;;;4.30;;
40076;SDS011;25777;47.824;18.982;2023-11-21T01:57:39;10.80;;;4.17;;
40076;SDS011;25777;47.824;18.982;2023-11-21T02:00:06;11.47;;;4.10;;
40076;SDS011;25777;47.824;18.982;2023-11-21T02:02:42;13.83;;;4.17;;
40076;SDS011;25777;47.824;18.982;2023-11-21T02:05:09;9.93;;;4.23;;
40076;SDS011;25777;47.824;18.982;2023-11-21T02:07:37;18.73;;;4.27;;
40076;SDS011;25777;47.824;18.982;2023-11-21T02:10:07;9.63;;;3.97;;
40076;SDS011;25777;47.824;18.982;2023-11-21T02:12:34;8.17;;;4.00;;
40076;SDS011;25777;47.824;18.982;2023-11-21T02:15:03;10.07;;;3.97;;
40076;SDS011;25777;47.824;18.982;2023-11-21T02:17:34;14.30;;;4.17;;
40076;SDS011;25777;47.824;18.982;2023-11-21T02:20:01;13.07;;;4.97;;
40076;SDS011;25777;47.824;18.982;2023-11-21T02:22:28;9.60;;;4.60;;
40076;SDS011;25777;47.824;18.982;2023-11-21T02:24:57;10.40;;;4.50;;
40076;SDS011;25777;47.824;18.982;2023-11-21T02:27:23;11.03;;;3.93;;
40076;SDS011;25777;47.824;18.982;2023-11-21T02:29:49;10.27;;;4.33;;
40076;SDS011;25777;47.824;18.982;2023-11-21T02:32:16;14.17;;;4.00;;
40076;SDS011;25777;47.824;18.982;2023-11-21T02:34:47;9.10;;;3.97;;
40076;SDS011;25777;47.824;18.982;2023-11-21T02:37:13;8.93;;;3.80;;
40076;SDS011;25777;47.824;18.982;2023-11-21T02:39:39;11.00;;;4.33;;
40076;SDS011;25777;47.824;18.982;2023-11-21T02:42:05;12.73;;;4.20;;
40076;SDS011;25777;47.824;18.982;2023-11-21T02:44:31;9.90;;;4.07;;
40076;SDS011;25777;47.824;18.982;2023-11-21T02:46:57;7.97;;;3.40;;
40076;SDS011;25777;47.824;18.982;2023-11-21T02:49:23;10.27;;;3.60;;
40076;SDS011;25777;47.824;18.982;2023-11-21T02:51:48;10.03;;;3.80;;
40076;SDS011;25777;47.824;18.982;2023-11-21T02:54:14;10.03;;;3.73;;
40076;SDS011;25777;47.824;18.982;2023-11-21T02:56:42;12.30;;;3.67;;
40076;SDS011;25777;47.824;18.982;2023-11-21T02:59:08;9.17;;;3.47;;
40076;SDS011;25777;47.824;18.982;2023-11-21T03:01:34;10.40;;;3.60;;
40076;SDS011;25777;47.824;18.982;2023-11-21T03:03:59;8.77;;;3.83;;
40076;SDS011;25777;47.824;18.982;2023-11-21T03:06:26;10.83;;;3.67;;
40076;SDS011;25777;47.824;18.982;2023-11-21T03:08:52;7.77;;;3.40;;
40076;SDS011;25777;47.824;18.982;2023-11-21T03:11:18;7.57;;;3.30;;
40076;SDS011;25777;47.824;18.982;2023-11-21T03:13:44;10.67;;;3.20;;
40076;SDS011;25777;47.824;18.982;2023-11-21T03:16:10;13.73;;;3.80;;
40076;SDS011;25777;47.824;18.982;2023-11-21T03:18:40;11.00;;;3.10;;
40076;SDS011;25777;47.824;18.982;2023-11-21T03:21:06;17.13;;;5.10;;
40076;SDS011;25777;47.824;18.982;2023-11-21T03:23:34;13.40;;;4.57;;
40076;SDS011;25777;47.824;18.982;2023-11-21T03:26:01;12.33;;;4.80;;
40076;SDS011;25777;47.824;18.982;2023-11-21T03:28:27;9.33;;;4.73;;
40076;SDS011;25777;47.824;18.982;2023-11-21T03:30:53;10.00;;;3.67;;
40076;SDS011;25777;47.824;18.982;2023-11-21T03:33:19;14.27;;;3.90;;
40076;SDS011;25777;47.824;18.982;2023-11-21T03:35:45;9.63;;;4.57;;
40076;SDS011;25777;47.824;18.982;2023-11-21T03:38:11;12.03;;;5.00;;
40076;SDS011;25777;47.824;18.982;2023-11-21T03:40:37;15.63;;;6.23;;
40076;SDS011;25777;47.824;18.982;2023-11-21T03:43:04;12.83;;;5.70;;
40076;SDS011;25777;47.824;18.982;2023-11-21T03:45:31;12.70;;;5.43;;
40076;SDS011;25777;47.824;18.982;2023-11-21T03:47:57;13.23;;;5.67;;
40076;SDS011;25777;47.824;18.982;2023-11-21T03:50:23;11.83;;;5.00;;
40076;SDS011;25777;47.824;18.982;2023-11-21T03:52:48;9.27;;;4.47;;
40076;SDS011;25777;47.824;18.982;2023-11-21T03:55:14;10.60;;;4.87;;
40076;SDS011;25777;47.824;18.982;2023-11-21T03:57:40;10.03;;;4.80;;
40076;SDS011;25777;47.824;18.982;2023-11-21T04:00:06;11.33;;;3.90;;
40076;SDS011;25777;47.824;18.982;2023-11-21T04:02:36;7.90;;;4.10;;
40076;SDS011;25777;47.824;18.982;2023-11-21T04:05:02;10.10;;;3.70;;
40076;SDS011;25777;47.824;18.982;2023-11-21T04:07:28;8.77;;;3.60;;
40076;SDS011;25777;47.824;18.982;2023-11-21T04:09:54;8.57;;;3.87;;
40076;SDS011;25777;47.824;18.982;2023-11-21T04:12:20;10.40;;;3.43;;
40076;SDS011;25777;47.824;18.982;2023-11-21T04:14:45;13.23;;;4.00;;
40076;SDS011;25777;47.824;18.982;2023-11-21T04:17:11;10.53;;;3.80;;
40076;SDS011;25777;47.824;18.982;2023-11-21T04:19:37;8.40;;;3.73;;
40076;SDS011;25777;47.824;18.982;2023-11-21T04:22:03;8.50;;;3.47;;
40076;SDS011;25777;47.824;18.982;2023-11-21T04:24:34;10.70;;;3.73;;
40076;SDS011;25777;47.824;18.982;2023-11-21T04:27:00;8.63;;;3.33;;
40076;SDS011;25777;47.824;18.982;2023-11-21T04:29:28;11.03;;;3.73;;
40076;SDS011;25777;47.824;18.982;2023-11-21T04:31:54;13.37;;;3.90;;
40076;SDS011;25777;47.824;18.982;2023-11-21T04:34:19;8.73;;;3.80;;
40076;SDS011;25777;47.824;18.982;2023-11-21T04:36:45;7.97;;;3.73;;
40076;SDS011;25777;47.824;18.982;2023-11-21T04:39:11;16.37;;;4.27;;
40076;SDS011;25777;47.824;18.982;2023-11-21T04:41:37;12.60;;;4.10;;
40076;SDS011;25777;47.824;18.982;2023-11-21T04:44:05;8.20;;;3.60;;
40076;SDS011;25777;47.824;18.982;2023-11-21T04:46:31;10.67;;;3.90;;
40076;SDS011;25777;47.824;18.982;2023-11-21T04:48:57;8.50;;;3.30;;
40076;SDS011;25777;47.824;18.982;2023-11-21T04:51:23;9.83;;;3.80;;
40076;SDS011;25777;47.824;18.982;2023-11-21T04:53:49;11.23;;;4.30;;
40076;SDS011;25777;47.824;18.982;2023-11-21T04:56:15;10.60;;;4.20;;
40076;SDS011;25777;47.824;18.982;2023-11-21T04:58:41;13.63;;;4.17;;
40076;SDS011;25777;47.824;18.982;2023-11-21T05:01:07;11.07;;;3.60;;
40076;SDS011;25777;47.824;18.982;2023-11-21T05:03:33;13.20;;;4.40;;
40076;SDS011;25777;47.824;18.982;2023-11-21T05:06:00;10.20;;;4.27;;
40076;SDS011;25777;47.824;18.982;2023-11-21T05:08:25;10.43;;;4.07;;
40076;SDS011;25777;47.824;18.982;2023-11-21T05:10:52;9.93;;;3.67;;
40076;SDS011;25777;47.824;18.982;2023-11-21T05:13:18;11.13;;;4.17;;
40076;SDS011;25777;47.824;18.982;2023-11-21T05:15:45;12.70;;;4.10;;
40076;SDS011;25777;47.824;18.982;2023-11-21T05:18:11;10.23;;;4.17;;
40076;SDS011;25777;47.824;18.982;2023-11-21T05:20:39;14.63;;;4.23;;
40076;SDS011;25777;47.824;18.982;2023-11-21T05:23:06;12.90;;;5.10;;
40076;SDS011;25777;47.824;18.982;2023-11-21T05:25:33;9.60;;;3.57;;
40076;SDS011;25777;47.824;18.982;2023-11-21T05:27:59;8.83;;;3.80;;
40076;SDS011;25777;47.824;18.982;2023-11-21T05:30:26;8.53;;;3.40;;
40076;SDS011;25777;47.824;18.982;2023-11-21T05:32:53;11.70;;;3.90;;
40076;SDS011;25777;47.824;18.982;2023-11-21T05:35:18;11.10;;;3.43;;
40076;SDS011;25777;47.824;18.982;2023-11-21T05:37:44;12.27;;;3.60;;
40076;SDS011;25777;47.824;18.982;2023-11-21T05:40:11;10.40;;;3.87;;
40076;SDS011;25777;47.824;18.982;2023-11-21T05:42:38;12.30;;;4.13;;
40076;SDS011;25777;47.824;18.982;2023-11-21T05:45:05;11.67;;;4.07;;
40076;SDS011;25777;47.824;18.982;2023-11-21T05:47:36;10.17;;;3.93;;
40076;SDS011;25777;47.824;18.982;2023-11-21T05:50:04;13.10;;;3.90;;
40076;SDS011;25777;47.824;18.982;2023-11-21T05:52:31;9.97;;;3.63;;
40076;SDS011;25777;47.824;18.982;2023-11-21T05:54:57;11.60;;;3.93;;
40076;SDS011;25777;47.824;18.982;2023-11-21T05:57:23;13.00;;;4.07;;
40076;SDS011;25777;47.824;18.982;2023-11-21T05:59:49;8.23;;;3.43;;
40076;SDS011;25777;47.824;18.982;2023-11-21T06:02:15;13.37;;;4.57;;
40076;SDS011;25777;47.824;18.982;2023-11-21T06:04:40;11.20;;;4.23;;
40076;SDS011;25777;47.824;18.982;2023-11-21T06:07:06;11.23;;;4.67;;
40076;SDS011;25777;47.824;18.982;2023-11-21T06:09:32;8.50;;;3.90;;
40076;SDS011;25777;47.824;18.982;2023-11-21T06:11:59;10.93;;;4.03;;
40076;SDS011;25777;47.824;18.982;2023-11-21T06:14:25;10.43;;;4.50;;
40076;SDS011;25777;47.824;18.982;2023-11-21T06:16:51;12.17;;;4.37;;
40076;SDS011;25777;47.824;18.982;2023-11-21T06:19:17;10.63;;;4.00;;
40076;SDS011;25777;47.824;18.982;2023-11-21T06:21:46;8.17;;;4.63;;
40076;SDS011;25777;47.824;18.982;2023-11-21T06:24:12;13.40;;;4.70;;
40076;SDS011;25777;47.824;18.982;2023-11-21T06:26:40;11.77;;;4.33;;
40076;SDS011;25777;47.824;18.982;2023-11-21T06:29:06;11.67;;;4.93;;
40076;SDS011;25777;47.824;18.982;2023-11-21T06:31:32;15.37;;;4.60;;
40076;SDS011;25777;47.824;18.982;2023-11-21T06:33:58;14.10;;;4.83;;
40076;SDS011;25777;47.824;18.982;2023-11-21T06:36:25;10.73;;;4.57;;
40076;SDS011;25777;47.824;18.982;2023-11-21T06:38:51;11.70;;;4.33;;
40076;SDS011;25777;47.824;18.982;2023-11-21T06:41:17;11.97;;;5.13;;
40076;SDS011;25777;47.824;18.982;2023-11-21T06:43:43;17.10;;;5.27;;
40076;SDS011;25777;47.824;18.982;2023-11-21T06:46:11;14.83;;;4.63;;
40076;SDS011;25777;47.824;18.982;2023-11-21T06:48:41;16.97;;;4.97;;
40076;SDS011;25777;47.824;18.982;2023-11-21T06:51:08;10.43;;;4.90;;
40076;SDS011;25777;47.824;18.982;2023-11-21T06:53:34;13.53;;;5.07;;
40076;SDS011;25777;47.824;18.982;2023-11-21T06:56:02;9.27;;;4.33;;
40076;SDS011;25777;47.824;18.982;2023-11-21T06:58:28;12.70;;;4.80;;
40076;SDS011;25777;47.824;18.982;2023-11-21T07:00:54;14.00;;;5.03;;
40076;SDS011;25777;47.824;18.982;2023-11-21T07:03:19;20.03;;;5.47;;
40076;SDS011;25777;47.824;18.982;2023-11-21T07:05:45;10.47;;;4.57;;
40076;SDS011;25777;47.824;18.982;2023-11-21T07:08:11;14.10;;;5.37;;
40076;SDS011;25777;47.824;18.982;2023-11-21T07:10:37;13.77;;;5.13;;
40076;SDS011;25777;47.824;18.982;2023-11-21T07:13:03;11.07;;;4.97;;
40076;SDS011;25777;47.824;18.982;2023-11-21T07:15:29;20.33;;;7.53;;
40076;SDS011;25777;47.824;18.982;2023-11-21T07:17:55;25.60;;;11.10;;
40076;SDS011;25777;47.824;18.982;2023-11-21T07:20:21;30.30;;;12.10;;
40076;SDS011;25777;47.824;18.982;2023-11-21T07:22:47;19.50;;;7.93;;
40076;SDS011;25777;47.824;18.982;2023-11-21T07:25:13;21.60;;;7.90;;
40076;SDS011;25777;47.824;18.982;2023-11-21T07:27:39;19.33;;;7.20;;
40076;SDS011;25777;47.824;18.982;2023-11-21T07:30:04;13.47;;;6.00;;
40076;SDS011;25777;47.824;18.982;2023-11-21T07:32:32;16.00;;;6.07;;
40076;SDS011;25777;47.824;18.982;2023-11-21T07:34:59;50.90;;;16.33;;
40076;SDS011;25777;47.824;18.982;2023-11-21T07:37:26;41.13;;;12.83;;
40076;SDS011;25777;47.824;18.982;2023-11-21T07:39:55;40.43;;;12.83;;
40076;SDS011;25777;47.824;18.982;2023-11-21T07:42:23;20.50;;;7.63;;
40076;SDS011;25777;47.824;18.982;2023-11-21T07:44:51;25.43;;;9.47;;
40076;SDS011;25777;47.824;18.982;2023-11-21T07:47:17;48.03;;;16.97;;
40076;SDS011;25777;47.824;18.982;2023-11-21T07:49:43;45.97;;;17.17;;
40076;SDS011;25777;47.824;18.982;2023-11-21T07:52:10;21.03;;;9.13;;
40076;SDS011;25777;47.824;18.982;2023-11-21T07:54:36;38.37;;;13.20;;
40076;SDS011;25777;47.824;18.982;2023-11-21T07:57:02;84.87;;;23.60;;
40076;SDS011;25777;47.824;18.982;2023-11-21T07:59:29;49.13;;;17.03;;
40076;SDS011;25777;47.824;18.982;2023-11-21T08:01:55;39.13;;;14.63;;
40076;SDS011;25777;47.824;18.982;2023-11-21T08:04:21;40.37;;;13.77;;
40076;SDS011;25777;47.824;18.982;2023-11-21T08:06:47;31.83;;;11.97;;
40076;SDS011;25777;47.824;18.982;2023-11-21T08:09:14;26.43;;;11.07;;
40076;SDS011;25777;47.824;18.982;2023-11-21T08:11:42;25.87;;;11.03;;
40076;SDS011;25777;47.824;18.982;2023-11-21T08:14:08;23.93;;;9.03;;
40076;SDS011;25777;47.824;18.982;2023-11-21T08:16:34;40.60;;;14.80;;
40076;SDS011;25777;47.824;18.982;2023-11-21T08:18:59;17.60;;;6.83;;
40076;SDS011;25777;47.824;18.982;2023-11-21T08:21:26;14.33;;;5.20;;
40076;SDS011;25777;47.824;18.982;2023-11-21T08:23:52;18.17;;;6.77;;
40076;SDS011;25777;47.824;18.982;2023-11-21T08:26:19;18.47;;;6.53;;
40076;SDS011;25777;47.824;18.982;2023-11-21T08:28:45;16.13;;;5.97;;
40076;SDS011;25777;47.824;18.982;2023-11-21T08:31:12;20.43;;;7.90;;
40076;SDS011;25777;47.824;18.982;2023-11-21T08:33:38;18.60;;;8.53;;
40076;SDS011;25777;47.824;18.982;2023-11-21T08:36:08;16.80;;;8.37;;
40076;SDS011;25777;47.824;18.982;2023-11-21T08:38:35;28.50;;;12.33;;
40076;SDS011;25777;47.824;18.982;2023-11-21T08:41:07;19.90;;;8.67;;
40076;SDS011;25777;47.824;18.982;2023-11-21T08:43:35;25.03;;;10.17;;
40076;SDS011;25777;47.824;18.982;2023-11-21T08:46:07;20.00;;;8.50;;
40076;SDS011;25777;47.824;18.982;2023-11-21T08:48:36;39.83;;;17.93;;
40076;SDS011;25777;47.824;18.982;2023-11-21T08:51:02;26.83;;;11.07;;
40076;SDS011;25777;47.824;18.982;2023-11-21T08:53:29;14.70;;;6.20;;
40076;SDS011;25777;47.824;18.982;2023-11-21T08:55:56;16.40;;;6.10;;
40076;SDS011;25777;47.824;18.982;2023-11-21T08:58:22;13.57;;;5.27;;
40076;SDS011;25777;47.824;18.982;2023-11-21T09:00:48;12.10;;;4.93;;
40076;SDS011;25777;47.824;18.982;2023-11-21T09:03:14;15.57;;;4.87;;
40076;SDS011;25777;47.824;18.982;2023-11-21T09:05:40;11.83;;;4.57;;
40076;SDS011;25777;47.824;18.982;2023-11-21T09:08:05;12.70;;;3.97;;
40076;SDS011;25777;47.824;18.982;2023-11-21T09:10:34;9.70;;;3.50;;
40076;SDS011;25777;47.824;18.982;2023-11-21T09:13:04;8.83;;;3.70;;
40076;SDS011;25777;47.824;18.982;2023-11-21T09:15:30;9.07;;;3.80;;
40076;SDS011;25777;47.824;18.982;2023-11-21T09:17:56;8.23;;;3.30;;
40076;SDS011;25777;47.824;18.982;2023-11-21T09:20:22;10.23;;;3.40;;
40076;SDS011;25777;47.824;18.982;2023-11-21T09:22:48;9.57;;;3.57;;
40076;SDS011;25777;47.824;18.982;2023-11-21T09:25:14;10.70;;;3.73;;
40076;SDS011;25777;47.824;18.982;2023-11-21T09:27:41;11.60;;;3.40;;
40076;SDS011;25777;47.824;18.982;2023-11-21T09:30:07;8.77;;;2.93;;
40076;SDS011;25777;47.824;18.982;2023-11-21T09:32:37;11.63;;;4.10;;
40076;SDS011;25777;47.824;18.982;2023-11-21T09:35:04;10.90;;;3.13;;
40076;SDS011;25777;47.824;18.982;2023-11-21T09:37:31;10.67;;;3.83;;
40076;SDS011;25777;47.824;18.982;2023-11-21T09:39:58;9.57;;;3.50;;
40076;SDS011;25777;47.824;18.982;2023-11-21T09:42:32;8.67;;;3.73;;
40076;SDS011;25777;47.824;18.982;2023-11-21T09:45:17;12.20;;;4.00;;
40076;SDS011;25777;47.824;18.982;2023-11-21T09:47:48;9.60;;;4.27;;
40076;SDS011;25777;47.824;18.982;2023-11-21T09:50:16;8.47;;;3.73;;
40076;SDS011;25777;47.824;18.982;2023-11-21T09:53:06;11.00;;;3.73;;
40076;SDS011;25777;47.824;18.982;2023-11-21T09:55:45;12.60;;;4.83;;
40076;SDS011;25777;47.824;18.982;2023-11-21T09:58:13;7.20;;;3.73;;
40076;SDS011;25777;47.824;18.982;2023-11-21T10:00:40;10.57;;;4.23;;
40076;SDS011;25777;47.824;18.982;2023-11-21T10:03:07;8.57;;;3.60;;
40076;SDS011;25777;47.824;18.982;2023-11-21T10:05:34;10.73;;;5.37;;
40076;SDS011;25777;47.824;18.982;2023-11-21T10:08:00;14.57;;;5.53;;
40076;SDS011;25777;47.824;18.982;2023-11-21T10:10:30;9.33;;;3.93;;
40076;SDS011;25777;47.824;18.982;2023-11-21T10:12:57;11.60;;;3.80;;
40076;SDS011;25777;47.824;18.982;2023-11-21T10:17:59;8.93;;;3.20;;
40076;SDS011;25777;47.824;18.982;2023-11-21T10:20:32;8.75;;;3.33;;
40076;SDS011;25777;47.824;18.982;2023-11-21T10:23:04;10.68;;;3.33;;
40076;SDS011;25777;47.824;18.982;2023-11-21T10:25:32;9.37;;;3.30;;
40076;SDS011;25777;47.824;18.982;2023-11-21T10:27:59;7.67;;;3.30;;
40076;SDS011;25777;47.824;18.982;2023-11-21T10:33:03;11.85;;;3.05;;
40076;SDS011;25777;47.824;18.982;2023-11-21T10:38:21;9.00;;;3.27;;
40076;SDS011;25777;47.824;18.982;2023-11-21T10:40:49;8.57;;;2.90;;
40076;SDS011;25777;47.824;18.982;2023-11-21T10:43:15;9.30;;;3.00;;
40076;SDS011;25777;47.824;18.982;2023-11-21T10:45:42;7.50;;;2.90;;
40076;SDS011;25777;47.824;18.982;2023-11-21T10:48:10;9.87;;;3.10;;
40076;SDS011;25777;47.824;18.982;2023-11-21T10:50:40;7.97;;;2.80;;
40076;SDS011;25777;47.824;18.982;2023-11-21T10:53:06;9.83;;;3.23;;
40076;SDS011;25777;47.824;18.982;2023-11-21T10:55:39;5.60;;;2.70;;
40076;SDS011;25777;47.824;18.982;2023-11-21T10:58:05;6.77;;;2.30;;
40076;SDS011;25777;47.824;18.982;2023-11-21T11:00:32;9.87;;;2.80;;
40076;SDS011;25777;47.824;18.982;2023-11-21T11:02:59;8.93;;;2.60;;
40076;SDS011;25777;47.824;18.982;2023-11-21T11:05:26;8.33;;;3.33;;
40076;SDS011;25777;47.824;18.982;2023-11-21T11:08:08;6.90;;;3.07;;
40076;SDS011;25777;47.824;18.982;2023-11-21T11:10:36;9.83;;;3.67;;
40076;SDS011;25777;47.824;18.982;2023-11-21T11:13:03;10.40;;;4.00;;
40076;SDS011;25777;47.824;18.982;2023-11-21T11:15:31;9.57;;;3.53;;
40076;SDS011;25777;47.824;18.982;2023-11-21T11:17:58;12.60;;;3.00;;
40076;SDS011;25777;47.824;18.982;2023-11-21T11:20:34;8.67;;;3.30;;
40076;SDS011;25777;47.824;18.982;2023-11-21T11:28:29;6.77;;;2.70;;
40076;SDS011;25777;47.824;18.982;2023-11-21T11:33:58;5.73;;;2.60;;
40076;SDS011;25777;47.824;18.982;2023-11-21T11:36:31;9.07;;;2.92;;
40076;SDS011;25777;47.824;18.982;2023-11-21T11:39:02;6.45;;;2.30;;
40076;SDS011;25777;47.824;18.982;2023-11-21T11:41:48;7.13;;;2.53;;
40076;SDS011;25777;47.824;18.982;2023-11-21T11:50:09;7.83;;;2.63;;
40076;SDS011;25777;47.824;18.982;2023-11-21T11:55:08;7.23;;;2.40;;
40076;SDS011;25777;47.824;18.982;2023-11-21T11:57:36;7.50;;;2.90;;
40076;SDS011;25777;47.824;18.982;2023-11-21T12:00:10;6.43;;;2.00;;
40076;SDS011;25777;47.824;18.982;2023-11-21T12:02:41;5.82;;;2.22;;
40076;SDS011;25777;47.824;18.982;2023-11-21T12:05:10;4.03;;;1.97;;
40076;SDS011;25777;47.824;18.982;2023-11-21T12:07:57;5.20;;;2.10;;
40076;SDS011;25777;47.824;18.982;2023-11-21T12:10:29;6.43;;;2.13;;
40076;SDS011;25777;47.824;18.982;2023-11-21T12:13:06;6.67;;;2.47;;
40076;SDS011;25777;47.824;18.982;2023-11-21T12:15:33;8.50;;;2.43;;
40076;SDS011;25777;47.824;18.982;2023-11-21T12:18:00;6.07;;;2.40;;
40076;SDS011;25777;47.824;18.982;2023-11-21T12:20:26;5.60;;;2.47;;
40076;SDS011;25777;47.824;18.982;2023-11-21T12:22:54;7.00;;;2.87;;
40076;SDS011;25777;47.824;18.982;2023-11-21T12:25:27;8.77;;;3.00;;
40076;SDS011;25777;47.824;18.982;2023-11-21T12:27:54;7.47;;;2.60;;
40076;SDS011;25777;47.824;18.982;2023-11-21T12:30:23;7.67;;;2.60;;
40076;SDS011;25777;47.824;18.982;2023-11-21T12:32:54;6.63;;;2.83;;
40076;SDS011;25777;47.824;18.982;2023-11-21T12:35:30;9.95;;;2.83;;
40076;SDS011;25777;47.824;18.982;2023-11-21T12:37:59;5.93;;;3.10;;
40076;SDS011;25777;47.824;18.982;2023-11-21T12:40:27;9.67;;;2.93;;
40076;SDS011;25777;47.824;18.982;2023-11-21T12:42:57;6.83;;;2.60;;
40076;SDS011;25777;47.824;18.982;2023-11-21T12:45:25;7.30;;;2.80;;
40076;SDS011;25777;47.824;18.982;2023-11-21T12:47:54;8.93;;;3.17;;
40076;SDS011;25777;47.824;18.982;2023-11-21T12:50:25;9.00;;;3.30;;
40076;SDS011;25777;47.824;18.982;2023-11-21T12:52:54;6.13;;;3.10;;
40076;SDS011;25777;47.824;18.982;2023-11-21T12:55:23;10.65;;;3.47;;
40076;SDS011;25777;47.824;18.982;2023-11-21T12:57:53;7.70;;;3.50;;
40076;SDS011;25777;47.824;18.982;2023-11-21T13:00:27;8.67;;;3.50;;
40076;SDS011;25777;47.824;18.982;2023-11-21T13:02:57;9.93;;;3.60;;
40076;SDS011;25777;47.824;18.982;2023-11-21T13:05:27;8.80;;;3.37;;
40076;SDS011;25777;47.824;18.982;2023-11-21T13:07:58;9.67;;;3.63;;
40076;SDS011;25777;47.824;18.982;2023-11-21T13:10:33;9.20;;;3.70;;
40076;SDS011;25777;47.824;18.982;2023-11-21T13:13:05;8.67;;;3.60;;
40076;SDS011;25777;47.824;18.982;2023-11-21T13:15:34;12.95;;;4.45;;
40076;SDS011;25777;47.824;18.982;2023-11-21T13:18:04;11.63;;;3.47;;
40076;SDS011;25777;47.824;18.982;2023-11-21T13:20:29;9.00;;;3.57;;
40076;SDS011;25777;47.824;18.982;2023-11-21T13:22:56;9.73;;;3.77;;
40076;SDS011;25777;47.824;18.982;2023-11-21T13:25:27;10.00;;;3.60;;
40076;SDS011;25777;47.824;18.982;2023-11-21T13:27:53;10.30;;;3.87;;
40076;SDS011;25777;47.824;18.982;2023-11-21T13:30:26;8.13;;;3.90;;
40076;SDS011;25777;47.824;18.982;2023-11-21T13:32:59;8.90;;;4.07;;
40076;SDS011;25777;47.824;18.982;2023-11-21T13:35:34;9.70;;;3.90;;
40076;SDS011;25777;47.824;18.982;2023-11-21T13:38:12;8.60;;;4.20;;
40076;SDS011;25777;47.824;18.982;2023-11-21T13:40:46;9.23;;;3.70;;
40076;SDS011;25777;47.824;18.982;2023-11-21T13:43:18;7.63;;;3.73;;
40076;SDS011;25777;47.824;18.982;2023-11-21T13:45:47;9.50;;;4.60;;
40076;SDS011;25777;47.824;18.982;2023-11-21T13:48:24;11.53;;;4.03;;
40076;SDS011;25777;47.824;18.982;2023-11-21T13:50:56;12.27;;;3.43;;
40076;SDS011;25777;47.824;18.982;2023-11-21T13:53:48;10.23;;;4.47;;
40076;SDS011;25777;47.824;18.982;2023-11-21T13:56:18;13.33;;;4.50;;
40076;SDS011;25777;47.824;18.982;2023-11-21T13:58:49;9.90;;;3.90;;
40076;SDS011;25777;47.824;18.982;2023-11-21T14:01:19;10.07;;;4.27;;
40076;SDS011;25777;47.824;18.982;2023-11-21T14:03:55;7.60;;;3.90;;
40076;SDS011;25777;47.824;18.982;2023-11-21T14:06:48;11.73;;;3.97;;
40076;SDS011;25777;47.824;18.982;2023-11-21T14:09:18;8.03;;;3.80;;
40076;SDS011;25777;47.824;18.982;2023-11-21T14:11:58;11.80;;;3.40;;
40076;SDS011;25777;47.824;18.982;2023-11-21T14:14:25;9.97;;;3.30;;
40076;SDS011;25777;47.824;18.982;2023-11-21T14:16:55;7.90;;;3.30;;
40076;SDS011;25777;47.824;18.982;2023-11-21T14:19:22;7.70;;;3.37;;
40076;SDS011;25777;47.824;18.982;2023-11-21T14:21:52;8.33;;;3.63;;
40076;SDS011;25777;47.824;18.982;2023-11-21T14:24:18;6.97;;;3.53;;
40076;SDS011;25777;47.824;18.982;2023-11-21T14:26:46;7.37;;;3.43;;
40076;SDS011;25777;47.824;18.982;2023-11-21T14:29:12;11.57;;;4.27;;
40076;SDS011;25777;47.824;18.982;2023-11-21T14:31:45;8.75;;;3.60;;
40076;SDS011;25777;47.824;18.982;2023-11-21T14:34:11;8.80;;;3.50;;
40076;SDS011;25777;47.824;18.982;2023-11-21T14:36:38;6.93;;;3.73;;
40076;SDS011;25777;47.824;18.982;2023-11-21T14:39:05;9.33;;;3.70;;
40076;SDS011;25777;47.824;18.982;2023-11-21T14:41:34;6.87;;;3.53;;
40076;SDS011;25777;47.824;18.982;2023-11-21T14:44:01;9.47;;;3.57;;
40076;SDS011;25777;47.824;18.982;2023-11-21T14:46:29;9.97;;;3.30;;
40076;SDS011;25777;47.824;18.982;2023-11-21T14:48:56;9.30;;;3.53;;
40076;SDS011;25777;47.824;18.982;2023-11-21T14:51:27;10.30;;;4.13;;
40076;SDS011;25777;47.824;18.982;2023-11-21T14:53:57;10.80;;;3.83;;